sensor_id;sensor_type;location;lat;lon;timestamp;P1;durP1;ratioP1;P2;durP2;ratioP2
4555;SDS011;2290;48.674;9.018;2023-07-30T00:01:44;4.47;;;3.33;;
4555;SDS011;2290;48.674;9.018;2023-07-30T00:04:10;6.23;;;4.00;;
4555;SDS011;2290;48.674;9.018;2023-07-30T00:06:36;4.37;;;3.70;;
4555;SDS011;2290;48.674;9.018;2023-07-30T00:09:01;4.93;;;3.80;;
4555;SDS011;2290;48.674;9.018;2023-07-30T00:11:27;4.40;;;3.60;;
4555;SDS011;2290;48.674;9.018;2023-07-30T00:13:52;7.37;;;3.43;;
4555;SDS011;2290;48.674;9.018;2023-07-30T00:16:18;9.17;;;3.70;;
4555;SDS011;2290;48.674;9.018;2023-07-30T00:18:43;6.10;;;4.17;;
4555;SDS011;2290;48.674;9.018;2023-07-30T00:21:09;4.90;;;3.63;;
4555;SDS011;2290;48.674;9.018;2023-07-30T00:23:35;4.80;;;3.17;;
4555;SDS011;2290;48.674;9.018;2023-07-30T00:26:00;5.30;;;3.83;;
4555;SDS011;2290;48.674;9.018;2023-07-30T00:28:26;5.73;;;4.07;;
4555;SDS011;2290;48.674;9.018;2023-07-30T00:30:53;5.30;;;3.40;;
4555;SDS011;2290;48.674;9.018;2023-07-30T00:33:23;4.87;;;3.40;;
4555;SDS011;2290;48.674;9.018;2023-07-30T00:35:57;5.10;;;3.70;;
4555;SDS011;2290;48.674;9.018;2023-07-30T00:38:28;4.50;;;3.40;;
4555;SDS011;2290;48.674;9.018;2023-07-30T00:40:59;4.50;;;3.50;;
4555;SDS011;2290;48.674;9.018;2023-07-30T00:43:25;6.00;;;3.50;;
4555;SDS011;2290;48.674;9.018;2023-07-30T00:45:54;3.60;;;3.23;;
4555;SDS011;2290;48.674;9.018;2023-07-30T00:48:19;4.97;;;3.33;;
4555;SDS011;2290;48.674;9.018;2023-07-30T00:50:45;3.67;;;3.03;;
4555;SDS011;2290;48.674;9.018;2023-07-30T00:53:11;5.30;;;3.80;;
4555;SDS011;2290;48.674;9.018;2023-07-30T00:55:42;4.60;;;3.10;;
4555;SDS011;2290;48.674;9.018;2023-07-30T00:58:09;5.40;;;2.67;;
4555;SDS011;2290;48.674;9.018;2023-07-30T01:00:37;4.03;;;3.13;;
4555;SDS011;2290;48.674;9.018;2023-07-30T01:03:12;5.03;;;4.13;;
4555;SDS011;2290;48.674;9.018;2023-07-30T01:05:41;3.10;;;2.67;;
4555;SDS011;2290;48.674;9.018;2023-07-30T01:08:12;3.23;;;2.80;;
4555;SDS011;2290;48.674;9.018;2023-07-30T01:10:38;4.57;;;3.00;;
4555;SDS011;2290;48.674;9.018;2023-07-30T01:13:07;3.97;;;3.10;;
4555;SDS011;2290;48.674;9.018;2023-07-30T01:15:34;3.47;;;2.70;;
4555;SDS011;2290;48.674;9.018;2023-07-30T01:18:01;5.53;;;3.13;;
4555;SDS011;2290;48.674;9.018;2023-07-30T01:20:30;4.63;;;3.13;;
4555;SDS011;2290;48.674;9.018;2023-07-30T01:22:59;4.63;;;3.20;;
4555;SDS011;2290;48.674;9.018;2023-07-30T01:25:26;5.20;;;3.40;;
4555;SDS011;2290;48.674;9.018;2023-07-30T01:28:00;4.70;;;3.27;;
4555;SDS011;2290;48.674;9.018;2023-07-30T01:31:02;4.60;;;2.70;;
4555;SDS011;2290;48.674;9.018;2023-07-30T01:33:33;3.80;;;3.13;;
4555;SDS011;2290;48.674;9.018;2023-07-30T01:36:20;5.30;;;2.83;;
4555;SDS011;2290;48.674;9.018;2023-07-30T01:38:47;3.60;;;2.80;;
4555;SDS011;2290;48.674;9.018;2023-07-30T01:41:15;4.80;;;2.57;;
4555;SDS011;2290;48.674;9.018;2023-07-30T01:43:40;4.90;;;2.87;;
4555;SDS011;2290;48.674;9.018;2023-07-30T01:46:07;3.47;;;2.43;;
4555;SDS011;2290;48.674;9.018;2023-07-30T01:48:33;3.47;;;2.70;;
4555;SDS011;2290;48.674;9.018;2023-07-30T01:50:59;3.30;;;2.57;;
4555;SDS011;2290;48.674;9.018;2023-07-30T01:53:29;4.10;;;2.87;;
4555;SDS011;2290;48.674;9.018;2023-07-30T01:55:59;2.40;;;2.20;;
4555;SDS011;2290;48.674;9.018;2023-07-30T01:58:26;3.77;;;2.43;;
4555;SDS011;2290;48.674;9.018;2023-07-30T02:00:53;3.40;;;2.40;;
4555;SDS011;2290;48.674;9.018;2023-07-30T02:03:18;2.80;;;2.27;;
4555;SDS011;2290;48.674;9.018;2023-07-30T02:05:46;3.73;;;2.40;;
4555;SDS011;2290;48.674;9.018;2023-07-30T02:08:12;2.80;;;2.43;;
4555;SDS011;2290;48.674;9.018;2023-07-30T02:10:42;2.23;;;2.03;;
4555;SDS011;2290;48.674;9.018;2023-07-30T02:13:08;3.37;;;2.40;;
4555;SDS011;2290;48.674;9.018;2023-07-30T02:15:34;2.90;;;2.30;;
4555;SDS011;2290;48.674;9.018;2023-07-30T02:18:00;2.47;;;2.13;;
4555;SDS011;2290;48.674;9.018;2023-07-30T02:20:28;3.23;;;2.50;;
4555;SDS011;2290;48.674;9.018;2023-07-30T02:26:19;2.33;;;2.13;;
4555;SDS011;2290;48.674;9.018;2023-07-30T02:29:11;2.30;;;2.00;;
4555;SDS011;2290;48.674;9.018;2023-07-30T02:31:44;2.37;;;2.03;;
4555;SDS011;2290;48.674;9.018;2023-07-30T02:40:11;2.53;;;2.33;;
4555;SDS011;2290;48.674;9.018;2023-07-30T02:42:37;3.10;;;2.40;;
4555;SDS011;2290;48.674;9.018;2023-07-30T02:45:05;3.00;;;2.10;;
4555;SDS011;2290;48.674;9.018;2023-07-30T02:47:31;2.87;;;2.33;;
4555;SDS011;2290;48.674;9.018;2023-07-30T02:49:56;4.23;;;2.47;;
4555;SDS011;2290;48.674;9.018;2023-07-30T02:52:22;3.40;;;2.50;;
4555;SDS011;2290;48.674;9.018;2023-07-30T02:54:48;4.90;;;2.60;;
4555;SDS011;2290;48.674;9.018;2023-07-30T02:57:15;2.80;;;2.30;;
4555;SDS011;2290;48.674;9.018;2023-07-30T02:59:42;2.90;;;2.50;;
4555;SDS011;2290;48.674;9.018;2023-07-30T03:02:09;2.80;;;2.30;;
4555;SDS011;2290;48.674;9.018;2023-07-30T03:04:34;3.80;;;2.70;;
4555;SDS011;2290;48.674;9.018;2023-07-30T03:07:03;3.33;;;2.60;;
4555;SDS011;2290;48.674;9.018;2023-07-30T03:09:30;5.23;;;2.50;;
4555;SDS011;2290;48.674;9.018;2023-07-30T03:11:56;4.30;;;2.70;;
4555;SDS011;2290;48.674;9.018;2023-07-30T03:14:40;3.00;;;2.30;;
4555;SDS011;2290;48.674;9.018;2023-07-30T03:17:13;3.17;;;2.37;;
4555;SDS011;2290;48.674;9.018;2023-07-30T03:20:01;3.87;;;2.60;;
4555;SDS011;2290;48.674;9.018;2023-07-30T03:22:29;4.13;;;2.60;;
4555;SDS011;2290;48.674;9.018;2023-07-30T03:25:16;5.00;;;2.30;;
4555;SDS011;2290;48.674;9.018;2023-07-30T03:27:50;4.57;;;2.63;;
4555;SDS011;2290;48.674;9.018;2023-07-30T03:30:17;3.00;;;2.47;;
4555;SDS011;2290;48.674;9.018;2023-07-30T03:32:52;4.77;;;2.70;;
4555;SDS011;2290;48.674;9.018;2023-07-30T03:35:33;4.57;;;2.90;;
4555;SDS011;2290;48.674;9.018;2023-07-30T03:37:59;3.97;;;2.47;;
4555;SDS011;2290;48.674;9.018;2023-07-30T03:40:26;4.67;;;2.60;;
4555;SDS011;2290;48.674;9.018;2023-07-30T03:43:00;4.20;;;2.80;;
4555;SDS011;2290;48.674;9.018;2023-07-30T03:45:27;2.70;;;2.47;;
4555;SDS011;2290;48.674;9.018;2023-07-30T03:47:58;3.77;;;2.57;;
4555;SDS011;2290;48.674;9.018;2023-07-30T03:50:25;3.67;;;2.70;;
4555;SDS011;2290;48.674;9.018;2023-07-30T03:52:50;6.00;;;3.00;;
4555;SDS011;2290;48.674;9.018;2023-07-30T03:55:16;3.20;;;2.40;;
4555;SDS011;2290;48.674;9.018;2023-07-30T03:57:41;3.53;;;2.90;;
4555;SDS011;2290;48.674;9.018;2023-07-30T04:00:07;2.93;;;2.30;;
4555;SDS011;2290;48.674;9.018;2023-07-30T04:02:32;3.40;;;2.43;;
4555;SDS011;2290;48.674;9.018;2023-07-30T04:04:58;3.47;;;2.87;;
4555;SDS011;2290;48.674;9.018;2023-07-30T04:07:24;2.80;;;2.30;;
4555;SDS011;2290;48.674;9.018;2023-07-30T04:09:49;3.20;;;2.70;;
4555;SDS011;2290;48.674;9.018;2023-07-30T04:12:15;3.07;;;2.60;;
4555;SDS011;2290;48.674;9.018;2023-07-30T04:14:40;3.80;;;3.03;;
4555;SDS011;2290;48.674;9.018;2023-07-30T04:17:06;5.83;;;2.43;;
4555;SDS011;2290;48.674;9.018;2023-07-30T04:19:31;4.20;;;2.63;;
4555;SDS011;2290;48.674;9.018;2023-07-30T04:21:57;3.17;;;2.87;;
4555;SDS011;2290;48.674;9.018;2023-07-30T04:24:22;2.43;;;2.23;;
4555;SDS011;2290;48.674;9.018;2023-07-30T04:26:48;2.97;;;2.60;;
4555;SDS011;2290;48.674;9.018;2023-07-30T04:29:13;2.77;;;2.30;;
4555;SDS011;2290;48.674;9.018;2023-07-30T04:31:40;2.83;;;2.53;;
4555;SDS011;2290;48.674;9.018;2023-07-30T04:34:05;3.27;;;2.70;;
4555;SDS011;2290;48.674;9.018;2023-07-30T04:36:31;3.03;;;2.10;;
4555;SDS011;2290;48.674;9.018;2023-07-30T04:38:56;3.40;;;2.80;;
4555;SDS011;2290;48.674;9.018;2023-07-30T04:41:22;3.60;;;3.27;;
4555;SDS011;2290;48.674;9.018;2023-07-30T04:43:47;4.10;;;2.70;;
4555;SDS011;2290;48.674;9.018;2023-07-30T04:46:13;3.77;;;2.30;;
4555;SDS011;2290;48.674;9.018;2023-07-30T04:48:38;5.03;;;2.67;;
4555;SDS011;2290;48.674;9.018;2023-07-30T04:51:05;5.30;;;2.60;;
4555;SDS011;2290;48.674;9.018;2023-07-30T04:53:31;3.93;;;2.60;;
4555;SDS011;2290;48.674;9.018;2023-07-30T04:55:57;3.10;;;2.50;;
4555;SDS011;2290;48.674;9.018;2023-07-30T04:58:23;5.43;;;2.30;;
4555;SDS011;2290;48.674;9.018;2023-07-30T05:00:49;3.40;;;2.30;;
4555;SDS011;2290;48.674;9.018;2023-07-30T05:03:15;4.30;;;2.47;;
4555;SDS011;2290;48.674;9.018;2023-07-30T05:05:42;3.27;;;2.57;;
4555;SDS011;2290;48.674;9.018;2023-07-30T05:08:07;2.70;;;2.00;;
4555;SDS011;2290;48.674;9.018;2023-07-30T05:10:35;2.60;;;2.27;;
4555;SDS011;2290;48.674;9.018;2023-07-30T05:13:00;3.63;;;2.40;;
4555;SDS011;2290;48.674;9.018;2023-07-30T05:15:26;3.20;;;2.40;;
4555;SDS011;2290;48.674;9.018;2023-07-30T05:17:53;2.97;;;2.30;;
4555;SDS011;2290;48.674;9.018;2023-07-30T05:20:18;5.17;;;2.47;;
4555;SDS011;2290;48.674;9.018;2023-07-30T05:22:44;2.40;;;1.97;;
4555;SDS011;2290;48.674;9.018;2023-07-30T05:25:09;2.93;;;2.20;;
4555;SDS011;2290;48.674;9.018;2023-07-30T05:27:35;3.20;;;2.20;;
4555;SDS011;2290;48.674;9.018;2023-07-30T05:30:01;2.77;;;2.10;;
4555;SDS011;2290;48.674;9.018;2023-07-30T05:32:26;2.77;;;1.97;;
4555;SDS011;2290;48.674;9.018;2023-07-30T05:34:52;2.97;;;2.70;;
4555;SDS011;2290;48.674;9.018;2023-07-30T05:37:17;2.27;;;2.03;;
4555;SDS011;2290;48.674;9.018;2023-07-30T05:39:43;2.70;;;2.00;;
4555;SDS011;2290;48.674;9.018;2023-07-30T05:42:09;3.73;;;2.17;;
4555;SDS011;2290;48.674;9.018;2023-07-30T05:44:34;3.17;;;2.33;;
4555;SDS011;2290;48.674;9.018;2023-07-30T05:47:00;3.50;;;2.33;;
4555;SDS011;2290;48.674;9.018;2023-07-30T05:49:25;2.17;;;1.80;;
4555;SDS011;2290;48.674;9.018;2023-07-30T05:51:51;2.30;;;2.00;;
4555;SDS011;2290;48.674;9.018;2023-07-30T05:54:17;2.23;;;2.00;;
4555;SDS011;2290;48.674;9.018;2023-07-30T05:56:44;2.33;;;2.03;;
4555;SDS011;2290;48.674;9.018;2023-07-30T05:59:09;3.53;;;1.97;;
4555;SDS011;2290;48.674;9.018;2023-07-30T06:01:36;2.67;;;2.20;;
4555;SDS011;2290;48.674;9.018;2023-07-30T06:04:02;2.90;;;2.03;;
4555;SDS011;2290;48.674;9.018;2023-07-30T06:06:28;4.37;;;2.00;;
4555;SDS011;2290;48.674;9.018;2023-07-30T06:08:54;2.00;;;1.80;;
4555;SDS011;2290;48.674;9.018;2023-07-30T06:11:20;3.37;;;2.00;;
4555;SDS011;2290;48.674;9.018;2023-07-30T06:13:46;2.30;;;2.00;;
4555;SDS011;2290;48.674;9.018;2023-07-30T06:16:12;2.03;;;1.80;;
4555;SDS011;2290;48.674;9.018;2023-07-30T06:18:38;2.07;;;1.87;;
4555;SDS011;2290;48.674;9.018;2023-07-30T06:21:03;1.90;;;1.70;;
4555;SDS011;2290;48.674;9.018;2023-07-30T06:23:29;1.80;;;1.63;;
4555;SDS011;2290;48.674;9.018;2023-07-30T06:25:54;2.00;;;1.80;;
4555;SDS011;2290;48.674;9.018;2023-07-30T06:28:20;2.20;;;1.87;;
4555;SDS011;2290;48.674;9.018;2023-07-30T06:30:45;2.33;;;1.77;;
4555;SDS011;2290;48.674;9.018;2023-07-30T06:33:11;3.30;;;1.80;;
4555;SDS011;2290;48.674;9.018;2023-07-30T06:35:37;3.13;;;2.00;;
4555;SDS011;2290;48.674;9.018;2023-07-30T06:38:02;2.03;;;1.73;;
4555;SDS011;2290;48.674;9.018;2023-07-30T06:40:28;2.17;;;1.70;;
4555;SDS011;2290;48.674;9.018;2023-07-30T06:42:53;1.70;;;1.43;;
4555;SDS011;2290;48.674;9.018;2023-07-30T06:45:20;1.87;;;1.70;;
4555;SDS011;2290;48.674;9.018;2023-07-30T06:47:46;1.73;;;1.60;;
4555;SDS011;2290;48.674;9.018;2023-07-30T06:50:11;1.90;;;1.63;;
4555;SDS011;2290;48.674;9.018;2023-07-30T06:52:37;1.80;;;1.57;;
4555;SDS011;2290;48.674;9.018;2023-07-30T06:55:04;1.50;;;1.40;;
4555;SDS011;2290;48.674;9.018;2023-07-30T06:57:31;1.90;;;1.70;;
4555;SDS011;2290;48.674;9.018;2023-07-30T06:59:57;2.40;;;1.70;;
4555;SDS011;2290;48.674;9.018;2023-07-30T07:02:23;1.63;;;1.53;;
4555;SDS011;2290;48.674;9.018;2023-07-30T07:04:50;1.90;;;1.70;;
4555;SDS011;2290;48.674;9.018;2023-07-30T07:07:16;1.93;;;1.60;;
4555;SDS011;2290;48.674;9.018;2023-07-30T07:09:43;2.40;;;2.00;;
4555;SDS011;2290;48.674;9.018;2023-07-30T07:12:10;1.77;;;1.60;;
4555;SDS011;2290;48.674;9.018;2023-07-30T07:14:35;2.27;;;1.90;;
4555;SDS011;2290;48.674;9.018;2023-07-30T07:17:01;2.03;;;1.70;;
4555;SDS011;2290;48.674;9.018;2023-07-30T07:19:26;2.27;;;1.73;;
4555;SDS011;2290;48.674;9.018;2023-07-30T07:21:52;1.60;;;1.50;;
4555;SDS011;2290;48.674;9.018;2023-07-30T07:24:18;2.47;;;1.90;;
4555;SDS011;2290;48.674;9.018;2023-07-30T07:26:44;2.70;;;2.10;;
4555;SDS011;2290;48.674;9.018;2023-07-30T07:29:10;2.03;;;1.70;;
4555;SDS011;2290;48.674;9.018;2023-07-30T07:31:35;1.83;;;1.70;;
4555;SDS011;2290;48.674;9.018;2023-07-30T07:34:02;1.63;;;1.47;;
4555;SDS011;2290;48.674;9.018;2023-07-30T07:36:28;2.20;;;1.80;;
4555;SDS011;2290;48.674;9.018;2023-07-30T07:38:53;1.90;;;1.60;;
4555;SDS011;2290;48.674;9.018;2023-07-30T07:41:19;2.33;;;1.90;;
4555;SDS011;2290;48.674;9.018;2023-07-30T07:43:46;1.93;;;1.73;;
4555;SDS011;2290;48.674;9.018;2023-07-30T07:46:13;1.90;;;1.70;;
4555;SDS011;2290;48.674;9.018;2023-07-30T07:48:39;2.20;;;1.67;;
4555;SDS011;2290;48.674;9.018;2023-07-30T07:51:10;2.43;;;1.80;;
4555;SDS011;2290;48.674;9.018;2023-07-30T07:53:37;3.50;;;1.83;;
4555;SDS011;2290;48.674;9.018;2023-07-30T07:56:03;2.13;;;1.70;;
4555;SDS011;2290;48.674;9.018;2023-07-30T07:58:28;2.00;;;1.73;;
4555;SDS011;2290;48.674;9.018;2023-07-30T08:00:56;2.13;;;1.60;;
4555;SDS011;2290;48.674;9.018;2023-07-30T08:03:22;6.40;;;1.90;;
4555;SDS011;2290;48.674;9.018;2023-07-30T08:05:48;1.87;;;1.63;;
4555;SDS011;2290;48.674;9.018;2023-07-30T08:08:17;2.10;;;1.70;;
4555;SDS011;2290;48.674;9.018;2023-07-30T08:10:44;2.40;;;1.80;;
4555;SDS011;2290;48.674;9.018;2023-07-30T08:13:12;1.60;;;1.40;;
4555;SDS011;2290;48.674;9.018;2023-07-30T08:15:39;3.00;;;1.67;;
4555;SDS011;2290;48.674;9.018;2023-07-30T08:18:05;2.13;;;1.73;;
4555;SDS011;2290;48.674;9.018;2023-07-30T08:20:31;1.60;;;1.50;;
4555;SDS011;2290;48.674;9.018;2023-07-30T08:22:57;2.70;;;1.73;;
4555;SDS011;2290;48.674;9.018;2023-07-30T08:25:22;1.90;;;1.30;;
4555;SDS011;2290;48.674;9.018;2023-07-30T08:27:48;2.13;;;1.60;;
4555;SDS011;2290;48.674;9.018;2023-07-30T08:30:13;2.00;;;1.47;;
4555;SDS011;2290;48.674;9.018;2023-07-30T08:32:39;2.37;;;1.70;;
4555;SDS011;2290;48.674;9.018;2023-07-30T08:35:06;2.10;;;1.70;;
4555;SDS011;2290;48.674;9.018;2023-07-30T08:37:32;1.80;;;1.50;;
4555;SDS011;2290;48.674;9.018;2023-07-30T08:39:59;3.80;;;1.97;;
4555;SDS011;2290;48.674;9.018;2023-07-30T08:42:25;2.10;;;1.60;;
4555;SDS011;2290;48.674;9.018;2023-07-30T08:44:56;1.67;;;1.53;;
4555;SDS011;2290;48.674;9.018;2023-07-30T08:47:21;1.80;;;1.70;;
4555;SDS011;2290;48.674;9.018;2023-07-30T08:49:47;3.10;;;1.80;;
4555;SDS011;2290;48.674;9.018;2023-07-30T08:52:12;3.37;;;1.73;;
4555;SDS011;2290;48.674;9.018;2023-07-30T08:54:44;2.40;;;2.00;;
4555;SDS011;2290;48.674;9.018;2023-07-30T08:57:11;2.10;;;1.87;;
4555;SDS011;2290;48.674;9.018;2023-07-30T08:59:39;2.00;;;1.80;;
4555;SDS011;2290;48.674;9.018;2023-07-30T09:02:13;2.43;;;1.70;;
4555;SDS011;2290;48.674;9.018;2023-07-30T09:05:02;2.43;;;1.63;;
4555;SDS011;2290;48.674;9.018;2023-07-30T09:07:30;2.57;;;2.10;;
4555;SDS011;2290;48.674;9.018;2023-07-30T09:09:56;1.77;;;1.53;;
4555;SDS011;2290;48.674;9.018;2023-07-30T09:12:34;2.03;;;1.83;;
4555;SDS011;2290;48.674;9.018;2023-07-30T09:15:10;2.10;;;1.70;;
4555;SDS011;2290;48.674;9.018;2023-07-30T09:17:36;2.03;;;1.83;;
4555;SDS011;2290;48.674;9.018;2023-07-30T09:20:03;2.17;;;1.97;;
4555;SDS011;2290;48.674;9.018;2023-07-30T09:22:32;2.10;;;1.87;;
4555;SDS011;2290;48.674;9.018;2023-07-30T09:25:02;2.40;;;1.73;;
4555;SDS011;2290;48.674;9.018;2023-07-30T09:27:28;2.10;;;1.70;;
4555;SDS011;2290;48.674;9.018;2023-07-30T09:29:55;2.33;;;2.00;;
4555;SDS011;2290;48.674;9.018;2023-07-30T09:32:30;2.07;;;1.87;;
4555;SDS011;2290;48.674;9.018;2023-07-30T09:35:04;2.80;;;2.20;;
4555;SDS011;2290;48.674;9.018;2023-07-30T09:37:38;2.73;;;1.83;;
4555;SDS011;2290;48.674;9.018;2023-07-30T09:40:06;2.90;;;2.00;;
4555;SDS011;2290;48.674;9.018;2023-07-30T09:42:35;2.40;;;1.87;;
4555;SDS011;2290;48.674;9.018;2023-07-30T09:45:08;3.40;;;1.97;;
4555;SDS011;2290;48.674;9.018;2023-07-30T09:47:46;2.53;;;1.97;;
4555;SDS011;2290;48.674;9.018;2023-07-30T09:50:15;2.70;;;2.23;;
4555;SDS011;2290;48.674;9.018;2023-07-30T09:52:42;1.90;;;1.73;;
4555;SDS011;2290;48.674;9.018;2023-07-30T09:55:08;2.27;;;1.83;;
4555;SDS011;2290;48.674;9.018;2023-07-30T09:57:36;1.90;;;1.70;;
4555;SDS011;2290;48.674;9.018;2023-07-30T10:00:03;2.80;;;1.90;;
4555;SDS011;2290;48.674;9.018;2023-07-30T10:02:30;3.50;;;1.93;;
4555;SDS011;2290;48.674;9.018;2023-07-30T10:05:00;3.30;;;2.20;;
4555;SDS011;2290;48.674;9.018;2023-07-30T10:07:29;2.60;;;2.00;;
4555;SDS011;2290;48.674;9.018;2023-07-30T10:09:58;3.17;;;2.33;;
4555;SDS011;2290;48.674;9.018;2023-07-30T10:12:28;2.73;;;2.00;;
4555;SDS011;2290;48.674;9.018;2023-07-30T10:14:57;1.83;;;1.73;;
4555;SDS011;2290;48.674;9.018;2023-07-30T10:17:23;2.20;;;1.70;;
4555;SDS011;2290;48.674;9.018;2023-07-30T10:19:49;2.17;;;1.90;;
4555;SDS011;2290;48.674;9.018;2023-07-30T10:22:25;2.60;;;1.93;;
4555;SDS011;2290;48.674;9.018;2023-07-30T10:25:01;2.63;;;2.17;;
4555;SDS011;2290;48.674;9.018;2023-07-30T10:28:00;2.00;;;1.77;;
4555;SDS011;2290;48.674;9.018;2023-07-30T10:30:31;3.20;;;2.30;;
4555;SDS011;2290;48.674;9.018;2023-07-30T10:33:03;3.60;;;2.10;;
4555;SDS011;2290;48.674;9.018;2023-07-30T10:35:34;3.73;;;2.13;;
4555;SDS011;2290;48.674;9.018;2023-07-30T10:38:28;2.00;;;1.80;;
4555;SDS011;2290;48.674;9.018;2023-07-30T10:41:26;4.00;;;2.07;;
4555;SDS011;2290;48.674;9.018;2023-07-30T10:43:52;2.53;;;1.87;;
4555;SDS011;2290;48.674;9.018;2023-07-30T10:46:18;2.87;;;2.03;;
4555;SDS011;2290;48.674;9.018;2023-07-30T10:48:47;1.90;;;1.70;;
4555;SDS011;2290;48.674;9.018;2023-07-30T10:51:15;3.43;;;2.20;;
4555;SDS011;2290;48.674;9.018;2023-07-30T10:53:43;3.03;;;1.97;;
4555;SDS011;2290;48.674;9.018;2023-07-30T10:56:12;2.00;;;1.80;;
4555;SDS011;2290;48.674;9.018;2023-07-30T10:59:21;2.77;;;1.90;;
4555;SDS011;2290;48.674;9.018;2023-07-30T11:01:48;2.87;;;2.00;;
4555;SDS011;2290;48.674;9.018;2023-07-30T11:04:14;2.43;;;2.13;;
4555;SDS011;2290;48.674;9.018;2023-07-30T11:06:49;2.77;;;2.20;;
4555;SDS011;2290;48.674;9.018;2023-07-30T11:09:25;2.80;;;2.13;;
4555;SDS011;2290;48.674;9.018;2023-07-30T11:11:52;2.93;;;2.03;;
4555;SDS011;2290;48.674;9.018;2023-07-30T11:14:23;3.17;;;2.20;;
4555;SDS011;2290;48.674;9.018;2023-07-30T11:16:52;2.60;;;2.20;;
4555;SDS011;2290;48.674;9.018;2023-07-30T11:19:30;2.40;;;2.20;;
4555;SDS011;2290;48.674;9.018;2023-07-30T11:22:28;2.80;;;2.20;;
4555;SDS011;2290;48.674;9.018;2023-07-30T11:25:15;2.33;;;2.13;;
4555;SDS011;2290;48.674;9.018;2023-07-30T11:27:47;2.97;;;1.83;;
4555;SDS011;2290;48.674;9.018;2023-07-30T11:30:13;2.60;;;1.80;;
4555;SDS011;2290;48.674;9.018;2023-07-30T11:32:44;2.33;;;2.00;;
4555;SDS011;2290;48.674;9.018;2023-07-30T11:35:12;3.00;;;2.10;;
4555;SDS011;2290;48.674;9.018;2023-07-30T11:38:32;2.60;;;1.67;;
4555;SDS011;2290;48.674;9.018;2023-07-30T11:41:00;2.83;;;2.30;;
4555;SDS011;2290;48.674;9.018;2023-07-30T11:43:42;2.30;;;2.03;;
4555;SDS011;2290;48.674;9.018;2023-07-30T11:46:12;2.80;;;2.10;;
4555;SDS011;2290;48.674;9.018;2023-07-30T11:49:13;2.67;;;2.30;;
4555;SDS011;2290;48.674;9.018;2023-07-30T11:52:09;1.97;;;1.77;;
4555;SDS011;2290;48.674;9.018;2023-07-30T11:54:38;3.93;;;2.33;;
4555;SDS011;2290;48.674;9.018;2023-07-30T11:57:35;2.37;;;2.17;;
4555;SDS011;2290;48.674;9.018;2023-07-30T12:00:22;2.80;;;2.27;;
4555;SDS011;2290;48.674;9.018;2023-07-30T12:05:50;3.60;;;2.23;;
4555;SDS011;2290;48.674;9.018;2023-07-30T12:08:17;4.20;;;2.40;;
4555;SDS011;2290;48.674;9.018;2023-07-30T12:11:04;2.47;;;2.20;;
4555;SDS011;2290;48.674;9.018;2023-07-30T12:13:31;2.70;;;2.20;;
4555;SDS011;2290;48.674;9.018;2023-07-30T12:15:58;2.73;;;2.40;;
4555;SDS011;2290;48.674;9.018;2023-07-30T12:18:26;3.53;;;2.20;;
4555;SDS011;2290;48.674;9.018;2023-07-30T12:20:54;2.70;;;2.00;;
4555;SDS011;2290;48.674;9.018;2023-07-30T12:23:26;2.97;;;2.23;;
4555;SDS011;2290;48.674;9.018;2023-07-30T12:29:11;2.87;;;2.37;;
4555;SDS011;2290;48.674;9.018;2023-07-30T12:32:02;4.27;;;2.10;;
4555;SDS011;2290;48.674;9.018;2023-07-30T12:34:29;2.53;;;2.23;;
4555;SDS011;2290;48.674;9.018;2023-07-30T12:36:56;2.70;;;2.37;;
4555;SDS011;2290;48.674;9.018;2023-07-30T12:39:29;3.00;;;2.43;;
4555;SDS011;2290;48.674;9.018;2023-07-30T12:42:12;4.63;;;2.67;;
4555;SDS011;2290;48.674;9.018;2023-07-30T12:45:01;2.13;;;1.93;;
4555;SDS011;2290;48.674;9.018;2023-07-30T12:47:26;5.03;;;2.90;;
4555;SDS011;2290;48.674;9.018;2023-07-30T12:49:52;2.80;;;2.07;;
4555;SDS011;2290;48.674;9.018;2023-07-30T12:52:19;3.20;;;2.30;;
4555;SDS011;2290;48.674;9.018;2023-07-30T12:55:19;3.40;;;2.23;;
4555;SDS011;2290;48.674;9.018;2023-07-30T12:57:56;3.90;;;2.50;;
4555;SDS011;2290;48.674;9.018;2023-07-30T13:00:22;2.70;;;2.50;;
4555;SDS011;2290;48.674;9.018;2023-07-30T13:02:53;3.27;;;2.20;;
4555;SDS011;2290;48.674;9.018;2023-07-30T13:05:22;3.37;;;2.70;;
4555;SDS011;2290;48.674;9.018;2023-07-30T13:08:06;3.27;;;2.50;;
4555;SDS011;2290;48.674;9.018;2023-07-30T13:10:40;2.13;;;1.93;;
4555;SDS011;2290;48.674;9.018;2023-07-30T13:13:07;2.17;;;1.97;;
4555;SDS011;2290;48.674;9.018;2023-07-30T13:15:34;2.40;;;2.03;;
4555;SDS011;2290;48.674;9.018;2023-07-30T13:18:06;2.83;;;2.40;;
4555;SDS011;2290;48.674;9.018;2023-07-30T13:20:37;2.60;;;2.40;;
4555;SDS011;2290;48.674;9.018;2023-07-30T13:23:04;2.80;;;2.20;;
4555;SDS011;2290;48.674;9.018;2023-07-30T13:25:59;5.27;;;2.50;;
4555;SDS011;2290;48.674;9.018;2023-07-30T13:28:47;2.43;;;2.00;;
4555;SDS011;2290;48.674;9.018;2023-07-30T13:31:13;2.67;;;2.37;;
4555;SDS011;2290;48.674;9.018;2023-07-30T13:33:41;2.47;;;2.27;;
4555;SDS011;2290;48.674;9.018;2023-07-30T13:36:13;3.00;;;2.07;;
4555;SDS011;2290;48.674;9.018;2023-07-30T13:39:00;3.00;;;2.00;;
4555;SDS011;2290;48.674;9.018;2023-07-30T13:42:02;2.60;;;2.10;;
4555;SDS011;2290;48.674;9.018;2023-07-30T13:44:30;2.10;;;1.90;;
4555;SDS011;2290;48.674;9.018;2023-07-30T13:47:00;4.27;;;2.30;;
4555;SDS011;2290;48.674;9.018;2023-07-30T13:50:05;5.30;;;2.30;;
4555;SDS011;2290;48.674;9.018;2023-07-30T13:52:33;2.20;;;2.00;;
4555;SDS011;2290;48.674;9.018;2023-07-30T13:55:00;2.90;;;2.10;;
4555;SDS011;2290;48.674;9.018;2023-07-30T13:57:27;2.20;;;2.00;;
4555;SDS011;2290;48.674;9.018;2023-07-30T14:00:02;2.73;;;1.93;;
4555;SDS011;2290;48.674;9.018;2023-07-30T14:02:34;2.43;;;2.10;;
4555;SDS011;2290;48.674;9.018;2023-07-30T14:04:59;2.00;;;1.70;;
4555;SDS011;2290;48.674;9.018;2023-07-30T14:07:30;2.23;;;1.90;;
4555;SDS011;2290;48.674;9.018;2023-07-30T14:09:56;6.10;;;2.20;;
4555;SDS011;2290;48.674;9.018;2023-07-30T14:15:33;5.10;;;2.47;;
4555;SDS011;2290;48.674;9.018;2023-07-30T14:18:33;5.00;;;2.27;;
4555;SDS011;2290;48.674;9.018;2023-07-30T14:21:00;2.00;;;1.80;;
4555;SDS011;2290;48.674;9.018;2023-07-30T14:23:28;4.30;;;2.30;;
4555;SDS011;2290;48.674;9.018;2023-07-30T14:26:09;3.40;;;2.27;;
4555;SDS011;2290;48.674;9.018;2023-07-30T14:28:42;3.77;;;2.27;;
4555;SDS011;2290;48.674;9.018;2023-07-30T14:31:07;2.70;;;2.13;;
4555;SDS011;2290;48.674;9.018;2023-07-30T14:33:39;2.60;;;1.93;;
4555;SDS011;2290;48.674;9.018;2023-07-30T14:36:05;3.07;;;1.80;;
4555;SDS011;2290;48.674;9.018;2023-07-30T14:38:32;2.30;;;2.10;;
4555;SDS011;2290;48.674;9.018;2023-07-30T14:41:00;4.07;;;2.00;;
4555;SDS011;2290;48.674;9.018;2023-07-30T14:46:34;3.03;;;2.03;;
4555;SDS011;2290;48.674;9.018;2023-07-30T14:49:15;2.37;;;2.00;;
4555;SDS011;2290;48.674;9.018;2023-07-30T14:52:04;2.80;;;1.87;;
4555;SDS011;2290;48.674;9.018;2023-07-30T14:54:31;3.17;;;1.93;;
4555;SDS011;2290;48.674;9.018;2023-07-30T14:57:03;2.10;;;1.83;;
4555;SDS011;2290;48.674;9.018;2023-07-30T14:59:33;3.03;;;1.97;;
4555;SDS011;2290;48.674;9.018;2023-07-30T15:05:05;3.67;;;1.77;;
4555;SDS011;2290;48.674;9.018;2023-07-30T15:08:05;3.30;;;1.67;;
4555;SDS011;2290;48.674;9.018;2023-07-30T15:11:01;2.23;;;1.70;;
4555;SDS011;2290;48.674;9.018;2023-07-30T15:13:30;2.20;;;1.80;;
4555;SDS011;2290;48.674;9.018;2023-07-30T15:16:01;3.00;;;1.97;;
4555;SDS011;2290;48.674;9.018;2023-07-30T15:18:49;3.53;;;2.17;;
4555;SDS011;2290;48.674;9.018;2023-07-30T15:21:22;2.37;;;1.80;;
4555;SDS011;2290;48.674;9.018;2023-07-30T15:26:54;3.77;;;2.03;;
4555;SDS011;2290;48.674;9.018;2023-07-30T15:29:21;2.90;;;1.80;;
4555;SDS011;2290;48.674;9.018;2023-07-30T15:32:03;3.10;;;1.60;;
4555;SDS011;2290;48.674;9.018;2023-07-30T15:34:34;2.63;;;1.50;;
4555;SDS011;2290;48.674;9.018;2023-07-30T15:40:01;3.17;;;1.80;;
4555;SDS011;2290;48.674;9.018;2023-07-30T15:43:12;2.23;;;1.47;;
4555;SDS011;2290;48.674;9.018;2023-07-30T15:45:39;3.97;;;1.73;;
4555;SDS011;2290;48.674;9.018;2023-07-30T15:48:11;2.87;;;2.03;;
4555;SDS011;2290;48.674;9.018;2023-07-30T15:50:39;3.93;;;1.70;;
4555;SDS011;2290;48.674;9.018;2023-07-30T15:53:04;2.00;;;1.50;;
4555;SDS011;2290;48.674;9.018;2023-07-30T15:55:34;4.27;;;2.17;;
4555;SDS011;2290;48.674;9.018;2023-07-30T15:58:03;1.83;;;1.50;;
4555;SDS011;2290;48.674;9.018;2023-07-30T16:00:28;3.70;;;1.77;;
4555;SDS011;2290;48.674;9.018;2023-07-30T16:02:55;2.20;;;1.63;;
4555;SDS011;2290;48.674;9.018;2023-07-30T16:08:45;3.17;;;1.80;;